Terminal Aerodrome Forecast
Issued by NWS Albany, NY

Home | Current Version | Previous Version | Text Only | Print | Product List | Glossary On
Versions: 1 2 3 4 5 6 7 8 9 10 11 12 13 14 15 16 17 18 19 20 21 22 23 24
000
FTUS41 KALY 021100 RRA
TAFPOU
TAF
KPOU 021141Z 0212/0312 00000KT P6SM FEW060 SCT250
     FM021500 23006KT P6SM SCT060
      TEMPO 0215/0219 BKN060
     FM022200 21008KT P6SM VCSH BKN060 PROB30 0222/0304 3SM -TSRA BR
      OVC025CB
     FM030400 28004KT P6SM VCSH OVC060
     FM030600 VRB03KT 5SM BR BKN060=

USA.gov is the U.S. government's official web portal to all federal, state and local government web resources and services.